sensor_id;sensor_type;location;lat;lon;timestamp;pressure;altitude;pressure_sealevel;temperature;humidity
42945;BME280;28584;42.636;23.294;2023-07-29T00:00:42;162912.03;;;16.34;100.00
42945;BME280;28584;42.636;23.294;2023-07-29T00:03:08;162879.81;;;16.22;100.00
42945;BME280;28584;42.636;23.294;2023-07-29T00:05:33;162857.00;;;16.14;100.00
42945;BME280;28584;42.636;23.294;2023-07-29T00:07:59;162818.06;;;15.99;100.00
42945;BME280;28584;42.636;23.294;2023-07-29T00:10:25;162852.97;;;16.12;100.00
42945;BME280;28584;42.636;23.294;2023-07-29T00:12:50;162866.41;;;16.17;100.00
42945;BME280;28584;42.636;23.294;2023-07-29T00:15:16;162932.16;;;16.42;100.00
42945;BME280;28584;42.636;23.294;2023-07-29T00:17:41;163006.00;;;16.70;100.00
42945;BME280;28584;42.636;23.294;2023-07-29T00:20:07;163016.75;;;16.74;100.00
42945;BME280;28584;42.636;23.294;2023-07-29T00:22:32;162987.22;;;16.63;100.00
42945;BME280;28584;42.636;23.294;2023-07-29T00:24:58;162954.97;;;16.51;100.00
42945;BME280;28584;42.636;23.294;2023-07-29T00:27:24;162973.78;;;16.58;100.00
42945;BME280;28584;42.636;23.294;2023-07-29T00:29:50;162920.03;;;16.37;100.00
42945;BME280;28584;42.636;23.294;2023-07-29T00:32:16;162893.25;;;16.27;100.00
42945;BME280;28584;42.636;23.294;2023-07-29T00:34:41;162865.06;;;16.17;100.00
42945;BME280;28584;42.636;23.294;2023-07-29T00:37:07;162865.06;;;16.17;100.00
42945;BME280;28584;42.636;23.294;2023-07-29T00:39:32;162883.84;;;16.24;100.00
42945;BME280;28584;42.636;23.294;2023-07-29T00:41:58;162901.25;;;16.30;100.00
42945;BME280;28584;42.636;23.294;2023-07-29T00:44:24;162878.44;;;16.22;100.00
42945;BME280;28584;42.636;23.294;2023-07-29T00:46:53;162858.34;;;16.14;100.00
42945;BME280;28584;42.636;23.294;2023-07-29T00:49:20;162866.41;;;16.17;100.00
42945;BME280;28584;42.636;23.294;2023-07-29T00:51:46;162851.66;;;16.12;100.00
42945;BME280;28584;42.636;23.294;2023-07-29T00:54:12;162835.53;;;16.06;100.00
42945;BME280;28584;42.636;23.294;2023-07-29T00:56:37;162806.03;;;15.95;100.00
42945;BME280;28584;42.636;23.294;2023-07-29T00:59:03;162803.31;;;15.94;100.00
42945;BME280;28584;42.636;23.294;2023-07-29T01:01:30;162788.56;;;15.88;100.00
42945;BME280;28584;42.636;23.294;2023-07-29T01:03:55;162768.50;;;15.81;100.00
42945;BME280;28584;42.636;23.294;2023-07-29T01:09:14;162752.38;;;15.75;100.00
42945;BME280;28584;42.636;23.294;2023-07-29T01:12:12;162721.53;;;15.63;100.00
42945;BME280;28584;42.636;23.294;2023-07-29T01:17:13;162675.94;;;15.46;100.00
42945;BME280;28584;42.636;23.294;2023-07-29T01:22:19;162645.03;;;15.35;100.00
42945;BME280;28584;42.636;23.294;2023-07-29T01:24:45;162611.53;;;15.22;100.00
42945;BME280;28584;42.636;23.294;2023-07-29T01:27:11;162627.63;;;15.28;100.00
42945;BME280;28584;42.636;23.294;2023-07-29T01:29:36;162624.97;;;15.27;100.00
42945;BME280;28584;42.636;23.294;2023-07-29T01:32:09;162624.97;;;15.27;100.00
42945;BME280;28584;42.636;23.294;2023-07-29T01:34:49;162639.69;;;15.33;100.00
42945;BME280;28584;42.636;23.294;2023-07-29T01:37:21;162645.03;;;15.35;100.00
42945;BME280;28584;42.636;23.294;2023-07-29T01:39:49;162637.00;;;15.32;100.00
42945;BME280;28584;42.636;23.294;2023-07-29T01:42:15;162659.84;;;15.40;100.00
42945;BME280;28584;42.636;23.294;2023-07-29T01:44:41;162654.50;;;15.38;100.00
42945;BME280;28584;42.636;23.294;2023-07-29T01:47:08;162667.88;;;15.43;100.00
42945;BME280;28584;42.636;23.294;2023-07-29T01:49:33;162647.81;;;15.36;100.00
42945;BME280;28584;42.636;23.294;2023-07-29T01:51:59;162630.28;;;15.29;100.00
42945;BME280;28584;42.636;23.294;2023-07-29T01:54:24;162584.72;;;15.12;100.00
42945;BME280;28584;42.636;23.294;2023-07-29T01:56:50;162563.28;;;15.04;100.00
42945;BME280;28584;42.636;23.294;2023-07-29T01:59:16;162556.59;;;15.02;100.00
42945;BME280;28584;42.636;23.294;2023-07-29T02:01:42;162547.19;;;14.98;100.00
42945;BME280;28584;42.636;23.294;2023-07-29T02:04:08;162532.44;;;14.93;100.00
42945;BME280;28584;42.636;23.294;2023-07-29T02:06:33;162525.75;;;14.90;100.00
42945;BME280;28584;42.636;23.294;2023-07-29T02:08:59;162525.75;;;14.90;100.00
42945;BME280;28584;42.636;23.294;2023-07-29T02:11:24;162525.75;;;14.90;100.00
42945;BME280;28584;42.636;23.294;2023-07-29T02:13:53;162532.44;;;14.93;100.00
42945;BME280;28584;42.636;23.294;2023-07-29T02:16:20;162540.50;;;14.96;100.00
42945;BME280;28584;42.636;23.294;2023-07-29T02:18:45;162569.97;;;15.07;100.00
42945;BME280;28584;42.636;23.294;2023-07-29T02:21:11;162587.41;;;15.13;100.00
42945;BME280;28584;42.636;23.294;2023-07-29T02:23:36;162646.41;;;15.35;100.00
42945;BME280;28584;42.636;23.294;2023-07-29T02:26:02;162637.00;;;15.32;100.00
42945;BME280;28584;42.636;23.294;2023-07-29T02:28:27;162607.50;;;15.21;100.00
42945;BME280;28584;42.636;23.294;2023-07-29T02:31:21;162595.41;;;15.16;100.00
42945;BME280;28584;42.636;23.294;2023-07-29T02:33:47;162571.31;;;15.07;100.00
42945;BME280;28584;42.636;23.294;2023-07-29T02:36:13;162547.19;;;14.98;100.00
42945;BME280;28584;42.636;23.294;2023-07-29T02:38:40;162539.13;;;14.95;100.00
42945;BME280;28584;42.636;23.294;2023-07-29T02:41:05;162553.91;;;15.01;100.00
42945;BME280;28584;42.636;23.294;2023-07-29T02:43:31;162569.97;;;15.07;100.00
42945;BME280;28584;42.636;23.294;2023-07-29T02:45:57;162592.75;;;15.15;100.00
42945;BME280;28584;42.636;23.294;2023-07-29T02:48:22;162631.66;;;15.30;100.00
42945;BME280;28584;42.636;23.294;2023-07-29T02:50:47;162627.63;;;15.28;100.00
42945;BME280;28584;42.636;23.294;2023-07-29T02:53:13;162622.25;;;15.26;100.00
42945;BME280;28584;42.636;23.294;2023-07-29T02:55:42;162595.41;;;15.16;100.00
42945;BME280;28584;42.636;23.294;2023-07-29T02:58:07;162606.19;;;15.20;100.00
42945;BME280;28584;42.636;23.294;2023-07-29T03:00:33;162582.03;;;15.11;100.00
42945;BME280;28584;42.636;23.294;2023-07-29T03:02:59;162541.84;;;14.96;100.00
42945;BME280;28584;42.636;23.294;2023-07-29T03:05:27;162603.47;;;15.19;100.00
42945;BME280;28584;42.636;23.294;2023-07-29T03:07:53;162682.63;;;15.49;100.00
42945;BME280;28584;42.636;23.294;2023-07-29T03:10:18;162759.06;;;15.77;100.00
42945;BME280;28584;42.636;23.294;2023-07-29T03:12:44;162729.59;;;15.66;100.00
42945;BME280;28584;42.636;23.294;2023-07-29T03:15:09;162693.41;;;15.53;100.00
42945;BME280;28584;42.636;23.294;2023-07-29T03:17:35;162675.94;;;15.46;100.00
42945;BME280;28584;42.636;23.294;2023-07-29T03:20:00;162675.94;;;15.46;100.00
42945;BME280;28584;42.636;23.294;2023-07-29T03:22:25;162658.53;;;15.40;100.00
42945;BME280;28584;42.636;23.294;2023-07-29T03:24:51;162665.22;;;15.42;100.00
42945;BME280;28584;42.636;23.294;2023-07-29T03:27:16;162690.69;;;15.52;100.00
42945;BME280;28584;42.636;23.294;2023-07-29T03:29:42;162702.75;;;15.56;100.00
42945;BME280;28584;42.636;23.294;2023-07-29T03:32:07;162729.59;;;15.66;100.00
42945;BME280;28584;42.636;23.294;2023-07-29T03:34:33;162784.53;;;15.87;100.00
42945;BME280;28584;42.636;23.294;2023-07-29T03:37:00;162847.63;;;16.10;100.00
42945;BME280;28584;42.636;23.294;2023-07-29T03:39:26;162913.34;;;16.35;100.00
42945;BME280;28584;42.636;23.294;2023-07-29T03:41:51;162995.28;;;16.66;100.00
42945;BME280;28584;42.636;23.294;2023-07-29T03:44:17;163067.72;;;16.93;100.00
42945;BME280;28584;42.636;23.294;2023-07-29T03:46:44;163172.47;;;17.32;100.00
42945;BME280;28584;42.636;23.294;2023-07-29T03:49:09;163231.56;;;17.54;100.00
42945;BME280;28584;42.636;23.294;2023-07-29T03:51:35;163316.19;;;17.85;100.00
42945;BME280;28584;42.636;23.294;2023-07-29T03:54:00;163390.06;;;18.13;100.00
42945;BME280;28584;42.636;23.294;2023-07-29T03:56:26;163484.16;;;18.48;100.00
42945;BME280;28584;42.636;23.294;2023-07-29T03:58:52;163564.81;;;18.78;100.00
42945;BME280;28584;42.636;23.294;2023-07-29T04:01:18;163648.16;;;19.09;100.00
42945;BME280;28584;42.636;23.294;2023-07-29T04:03:47;163736.91;;;19.42;96.00
42945;BME280;28584;42.636;23.294;2023-07-29T04:06:12;163817.59;;;19.72;89.32
42945;BME280;28584;42.636;23.294;2023-07-29T04:08:38;163836.44;;;19.79;87.29
42945;BME280;28584;42.636;23.294;2023-07-29T04:11:03;163759.75;;;19.51;90.10
42945;BME280;28584;42.636;23.294;2023-07-29T04:13:29;163870.06;;;19.92;89.61
42945;BME280;28584;42.636;23.294;2023-07-29T04:15:54;163989.88;;;20.36;84.49
42945;BME280;28584;42.636;23.294;2023-07-29T04:18:20;164057.13;;;20.61;80.71
42945;BME280;28584;42.636;23.294;2023-07-29T04:20:45;164127.09;;;20.87;78.59
42945;BME280;28584;42.636;23.294;2023-07-29T04:23:10;164187.72;;;21.10;73.94
42945;BME280;28584;42.636;23.294;2023-07-29T04:25:36;164202.50;;;21.15;74.33
42945;BME280;28584;42.636;23.294;2023-07-29T04:28:01;164272.53;;;21.41;72.95
42945;BME280;28584;42.636;23.294;2023-07-29T04:30:28;164326.41;;;21.62;70.81
42945;BME280;28584;42.636;23.294;2023-07-29T04:32:54;164207.91;;;21.17;70.17
42945;BME280;28584;42.636;23.294;2023-07-29T04:35:19;163945.44;;;20.20;85.66
42945;BME280;28584;42.636;23.294;2023-07-29T04:37:45;163927.97;;;20.13;89.18
42945;BME280;28584;42.636;23.294;2023-07-29T04:40:13;164202.50;;;21.15;83.80
42945;BME280;28584;42.636;23.294;2023-07-29T04:42:38;164365.50;;;21.76;74.12
42945;BME280;28584;42.636;23.294;2023-07-29T04:45:04;164493.47;;;22.24;68.07
42945;BME280;28584;42.636;23.294;2023-07-29T04:47:30;164594.56;;;22.61;64.52
42945;BME280;28584;42.636;23.294;2023-07-29T04:49:55;164661.94;;;22.86;62.70
42945;BME280;28584;42.636;23.294;2023-07-29T04:52:21;164612.06;;;22.68;64.33
42945;BME280;28584;42.636;23.294;2023-07-29T04:54:47;164753.59;;;23.20;61.59
42945;BME280;28584;42.636;23.294;2023-07-29T04:57:12;164531.19;;;22.38;63.08
42945;BME280;28584;42.636;23.294;2023-07-29T04:59:37;164759.06;;;23.22;61.42
42945;BME280;28584;42.636;23.294;2023-07-29T05:02:03;164938.34;;;23.89;58.92
42945;BME280;28584;42.636;23.294;2023-07-29T05:04:28;164962.69;;;23.98;57.20
42945;BME280;28584;42.636;23.294;2023-07-29T05:06:54;164922.19;;;23.83;57.70
42945;BME280;28584;42.636;23.294;2023-07-29T05:09:19;164943.75;;;23.91;56.98
42945;BME280;28584;42.636;23.294;2023-07-29T05:11:47;164977.53;;;24.03;57.65
42945;BME280;28584;42.636;23.294;2023-07-29T05:14:15;165105.66;;;24.51;56.22
42945;BME280;28584;42.636;23.294;2023-07-29T05:16:41;165170.47;;;24.75;55.46
42945;BME280;28584;42.636;23.294;2023-07-29T05:19:06;165035.53;;;24.25;55.36
42945;BME280;28584;42.636;23.294;2023-07-29T05:21:32;165024.75;;;24.21;55.97
42945;BME280;28584;42.636;23.294;2023-07-29T05:23:57;164826.44;;;23.47;58.38
42945;BME280;28584;42.636;23.294;2023-07-29T05:26:23;164873.63;;;23.65;58.24
42945;BME280;28584;42.636;23.294;2023-07-29T05:28:48;164822.41;;;23.46;57.62
42945;BME280;28584;42.636;23.294;2023-07-29T05:31:14;164466.53;;;22.14;60.41
42945;BME280;28584;42.636;23.294;2023-07-29T05:33:39;164734.72;;;23.13;59.15
42945;BME280;28584;42.636;23.294;2023-07-29T05:36:05;164773.88;;;23.28;58.43
42945;BME280;28584;42.636;23.294;2023-07-29T05:38:30;164981.56;;;24.05;56.38
42945;BME280;28584;42.636;23.294;2023-07-29T05:40:56;165001.81;;;24.13;55.27
42945;BME280;28584;42.636;23.294;2023-07-29T05:43:24;164811.63;;;23.42;55.81
42945;BME280;28584;42.636;23.294;2023-07-29T05:45:49;165027.44;;;24.22;55.67
42945;BME280;28584;42.636;23.294;2023-07-29T05:48:16;164992.34;;;24.09;55.31
42945;BME280;28584;42.636;23.294;2023-07-29T05:50:41;164822.41;;;23.46;56.38
42945;BME280;28584;42.636;23.294;2023-07-29T05:53:07;165213.69;;;24.91;53.29
42945;BME280;28584;42.636;23.294;2023-07-29T05:55:32;165409.41;;;25.64;50.80
42945;BME280;28584;42.636;23.294;2023-07-29T05:57:58;165343.31;;;25.39;50.55
42945;BME280;28584;42.636;23.294;2023-07-29T06:00:23;165291.94;;;25.20;50.81
42945;BME280;28584;42.636;23.294;2023-07-29T06:02:48;165100.28;;;24.49;52.61
42945;BME280;28584;42.636;23.294;2023-07-29T06:05:14;165200.16;;;24.86;52.66
42945;BME280;28584;42.636;23.294;2023-07-29T06:07:40;165445.91;;;25.77;50.32
42945;BME280;28584;42.636;23.294;2023-07-29T06:10:09;165409.41;;;25.64;50.49
42945;BME280;28584;42.636;23.294;2023-07-29T06:12:37;165382.41;;;25.54;50.80
42945;BME280;28584;42.636;23.294;2023-07-29T06:15:04;165580.97;;;26.27;49.01
42945;BME280;28584;42.636;23.294;2023-07-29T06:17:30;165648.50;;;26.52;48.20
42945;BME280;28584;42.636;23.294;2023-07-29T06:19:55;165637.69;;;26.48;47.78
42945;BME280;28584;42.636;23.294;2023-07-29T06:22:20;165617.41;;;26.41;47.96
42945;BME280;28584;42.636;23.294;2023-07-29T06:24:46;165651.22;;;26.53;48.04
42945;BME280;28584;42.636;23.294;2023-07-29T06:27:11;165486.41;;;25.92;49.17
42945;BME280;28584;42.636;23.294;2023-07-29T06:29:37;165597.19;;;26.33;48.74
42945;BME280;28584;42.636;23.294;2023-07-29T06:32:02;165966.16;;;27.70;46.21
42945;BME280;28584;42.636;23.294;2023-07-29T06:34:28;166085.16;;;28.14;45.41
42945;BME280;28584;42.636;23.294;2023-07-29T06:36:53;166330.06;;;29.05;43.05
42945;BME280;28584;42.636;23.294;2023-07-29T06:39:19;165440.47;;;25.75;47.10
42945;BME280;28584;42.636;23.294;2023-07-29T06:41:44;165586.38;;;26.29;47.94
42945;BME280;28584;42.636;23.294;2023-07-29T06:44:10;165343.31;;;25.39;49.28
42945;BME280;28584;42.636;23.294;2023-07-29T06:46:35;165355.41;;;25.44;48.18
42945;BME280;28584;42.636;23.294;2023-07-29T06:49:00;165664.72;;;26.58;47.15
42945;BME280;28584;42.636;23.294;2023-07-29T06:51:26;166008.13;;;27.86;44.14
42945;BME280;28584;42.636;23.294;2023-07-29T06:53:51;166139.25;;;28.34;42.54
42945;BME280;28584;42.636;23.294;2023-07-29T06:56:17;166413.94;;;29.36;41.00
42945;BME280;28584;42.636;23.294;2023-07-29T06:58:43;166186.66;;;28.52;41.80
42945;BME280;28584;42.636;23.294;2023-07-29T07:01:08;165745.84;;;26.89;44.17
42945;BME280;28584;42.636;23.294;2023-07-29T07:03:33;165745.84;;;26.89;44.61
42945;BME280;28584;42.636;23.294;2023-07-29T07:05:59;166056.78;;;28.04;43.66
42945;BME280;28584;42.636;23.294;2023-07-29T07:08:24;166361.19;;;29.17;41.21
42945;BME280;28584;42.636;23.294;2023-07-29T07:10:50;166465.41;;;29.55;40.14
42945;BME280;28584;42.636;23.294;2023-07-29T07:13:15;165813.38;;;27.14;43.93
42945;BME280;28584;42.636;23.294;2023-07-29T07:15:41;166051.34;;;28.02;42.66
42945;BME280;28584;42.636;23.294;2023-07-29T07:18:06;165940.50;;;27.61;42.42
42945;BME280;28584;42.636;23.294;2023-07-29T07:20:32;166071.66;;;28.09;42.78
42945;BME280;28584;42.636;23.294;2023-07-29T07:22:57;166142.00;;;28.35;42.12
42945;BME280;28584;42.636;23.294;2023-07-29T07:25:23;166367.94;;;29.19;41.72
42945;BME280;28584;42.636;23.294;2023-07-29T07:27:48;166519.53;;;29.75;40.38
42945;BME280;28584;42.636;23.294;2023-07-29T07:30:14;166200.16;;;28.57;42.08
42945;BME280;28584;42.636;23.294;2023-07-29T07:32:39;166489.78;;;29.64;40.33
42945;BME280;28584;42.636;23.294;2023-07-29T07:35:05;166422.09;;;29.39;40.68
42945;BME280;28584;42.636;23.294;2023-07-29T07:37:30;166200.16;;;28.57;41.41
42945;BME280;28584;42.636;23.294;2023-07-29T07:39:56;165780.94;;;27.02;44.13
42945;BME280;28584;42.636;23.294;2023-07-29T07:42:21;165866.13;;;27.33;43.34
42945;BME280;28584;42.636;23.294;2023-07-29T07:44:47;166323.31;;;29.03;41.45
42945;BME280;28584;42.636;23.294;2023-07-29T07:47:12;166573.69;;;29.95;39.46
42945;BME280;28584;42.636;23.294;2023-07-29T07:49:37;166246.16;;;28.74;41.16
42945;BME280;28584;42.636;23.294;2023-07-29T07:52:03;165964.78;;;27.70;41.86
42945;BME280;28584;42.636;23.294;2023-07-29T07:54:29;166165.03;;;28.44;41.14
42945;BME280;28584;42.636;23.294;2023-07-29T07:56:54;166029.75;;;27.94;41.11
42945;BME280;28584;42.636;23.294;2023-07-29T07:59:19;166520.91;;;29.76;39.67
42945;BME280;28584;42.636;23.294;2023-07-29T08:01:45;166006.75;;;27.85;41.21
42945;BME280;28584;42.636;23.294;2023-07-29T08:04:12;166420.72;;;29.39;39.36
42945;BME280;28584;42.636;23.294;2023-07-29T08:06:37;166679.31;;;30.34;37.60
42945;BME280;28584;42.636;23.294;2023-07-29T08:09:03;166470.78;;;29.57;39.19
42945;BME280;28584;42.636;23.294;2023-07-29T08:11:28;166634.66;;;30.18;38.17
42945;BME280;28584;42.636;23.294;2023-07-29T08:13:54;166623.78;;;30.14;37.67
42945;BME280;28584;42.636;23.294;2023-07-29T08:16:19;166584.50;;;29.99;36.71
42945;BME280;28584;42.636;23.294;2023-07-29T08:18:44;166663.09;;;30.28;37.11
42945;BME280;28584;42.636;23.294;2023-07-29T08:21:10;166334.13;;;29.07;39.17
42945;BME280;28584;42.636;23.294;2023-07-29T08:23:36;166070.28;;;28.09;40.30
42945;BME280;28584;42.636;23.294;2023-07-29T08:26:04;166120.31;;;28.27;41.31
42945;BME280;28584;42.636;23.294;2023-07-29T08:28:34;166545.28;;;29.85;39.14
42945;BME280;28584;42.636;23.294;2023-07-29T08:31:00;166687.44;;;30.37;37.45
42945;BME280;28584;42.636;23.294;2023-07-29T08:33:26;167055.97;;;31.74;35.81
42945;BME280;28584;42.636;23.294;2023-07-29T08:35:52;166357.13;;;29.15;38.92
42945;BME280;28584;42.636;23.294;2023-07-29T08:38:18;166346.31;;;29.11;39.04
42945;BME280;28584;42.636;23.294;2023-07-29T08:43:14;166795.84;;;30.77;36.17
42945;BME280;28584;42.636;23.294;2023-07-29T08:45:42;166321.94;;;29.02;37.41
42945;BME280;28584;42.636;23.294;2023-07-29T08:48:10;166392.31;;;29.28;37.91
42945;BME280;28584;42.636;23.294;2023-07-29T08:50:37;166275.91;;;28.85;37.91
42945;BME280;28584;42.636;23.294;2023-07-29T08:53:05;166772.75;;;30.69;35.67
42945;BME280;28584;42.636;23.294;2023-07-29T08:55:31;167062.72;;;31.76;32.74
42945;BME280;28584;42.636;23.294;2023-07-29T08:57:58;167314.91;;;32.69;31.96
42945;BME280;28584;42.636;23.294;2023-07-29T09:00:25;167489.84;;;33.34;30.97
42945;BME280;28584;42.636;23.294;2023-07-29T09:02:51;167522.44;;;33.46;31.44
42945;BME280;28584;42.636;23.294;2023-07-29T09:05:17;167175.22;;;32.18;31.98
42945;BME280;28584;42.636;23.294;2023-07-29T09:07:44;167211.84;;;32.31;30.50
42945;BME280;28584;42.636;23.294;2023-07-29T09:10:13;167117.00;;;31.96;31.42
42945;BME280;28584;42.636;23.294;2023-07-29T09:12:39;167169.84;;;32.16;32.41
42945;BME280;28584;42.636;23.294;2023-07-29T09:15:05;166798.53;;;30.78;32.41
42945;BME280;28584;42.636;23.294;2023-07-29T09:17:33;166958.41;;;31.38;33.11
42945;BME280;28584;42.636;23.294;2023-07-29T09:19:59;167026.13;;;31.63;32.62
42945;BME280;28584;42.636;23.294;2023-07-29T09:22:26;166367.94;;;29.19;34.74
42945;BME280;28584;42.636;23.294;2023-07-29T09:24:52;166506.03;;;29.70;35.05
42945;BME280;28584;42.636;23.294;2023-07-29T09:27:28;166814.81;;;30.84;33.42
42945;BME280;28584;42.636;23.294;2023-07-29T09:29:57;167112.94;;;31.95;32.14
42945;BME280;28584;42.636;23.294;2023-07-29T09:32:24;167146.81;;;32.07;31.17
42945;BME280;28584;42.636;23.294;2023-07-29T09:34:50;166499.28;;;29.68;33.90
42945;BME280;28584;42.636;23.294;2023-07-29T09:37:25;166782.28;;;30.72;33.33
42945;BME280;28584;42.636;23.294;2023-07-29T09:39:50;167179.28;;;32.19;30.83
42945;BME280;28584;42.636;23.294;2023-07-29T09:42:21;167351.50;;;32.83;30.01
42945;BME280;28584;42.636;23.294;2023-07-29T09:44:49;167275.59;;;32.55;29.90
42945;BME280;28584;42.636;23.294;2023-07-29T09:47:22;167397.66;;;33.00;29.67
42945;BME280;28584;42.636;23.294;2023-07-29T09:49:49;167411.19;;;33.05;29.52
42945;BME280;28584;42.636;23.294;2023-07-29T09:52:16;166901.47;;;31.16;30.62
42945;BME280;28584;42.636;23.294;2023-07-29T09:54:43;167099.34;;;31.90;30.18
42945;BME280;28584;42.636;23.294;2023-07-29T09:57:13;167065.44;;;31.77;30.79
42945;BME280;28584;42.636;23.294;2023-07-29T09:59:38;167382.75;;;32.94;29.30
42945;BME280;28584;42.636;23.294;2023-07-29T10:02:04;167606.53;;;33.77;28.50
42945;BME280;28584;42.636;23.294;2023-07-29T10:04:31;167645.94;;;33.92;28.11
42945;BME280;28584;42.636;23.294;2023-07-29T10:06:57;167144.09;;;32.06;30.16
42945;BME280;28584;42.636;23.294;2023-07-29T10:09:25;167321.69;;;32.72;29.65
42945;BME280;28584;42.636;23.294;2023-07-29T10:11:51;167474.94;;;33.28;29.03
42945;BME280;28584;42.636;23.294;2023-07-29T10:14:18;167357.00;;;32.85;29.52
42945;BME280;28584;42.636;23.294;2023-07-29T10:16:46;167611.97;;;33.79;28.27
42945;BME280;28584;42.636;23.294;2023-07-29T10:19:12;167595.69;;;33.73;26.88
42945;BME280;28584;42.636;23.294;2023-07-29T10:21:41;167693.44;;;34.09;26.65
42945;BME280;28584;42.636;23.294;2023-07-29T10:24:18;167682.53;;;34.05;27.10
42945;BME280;28584;42.636;23.294;2023-07-29T10:26:46;167579.38;;;33.67;27.46
42945;BME280;28584;42.636;23.294;2023-07-29T10:29:13;167740.88;;;34.27;27.05
42945;BME280;28584;42.636;23.294;2023-07-29T10:31:40;167755.81;;;34.32;27.40
42945;BME280;28584;42.636;23.294;2023-07-29T10:34:08;167774.84;;;34.39;26.09
42945;BME280;28584;42.636;23.294;2023-07-29T10:36:35;167142.72;;;32.06;29.54
42945;BME280;28584;42.636;23.294;2023-07-29T10:39:00;166764.63;;;30.66;31.27
42945;BME280;28584;42.636;23.294;2023-07-29T10:47:31;167118.31;;;31.97;29.30
42945;BME280;28584;42.636;23.294;2023-07-29T10:49:58;167373.22;;;32.91;27.67
42945;BME280;28584;42.636;23.294;2023-07-29T10:55:01;168024.69;;;35.31;26.24
42945;BME280;28584;42.636;23.294;2023-07-29T10:57:36;166759.19;;;30.64;30.53
42945;BME280;28584;42.636;23.294;2023-07-29T11:00:03;166428.84;;;29.42;31.83
42945;BME280;28584;42.636;23.294;2023-07-29T11:02:35;166738.91;;;30.56;31.08
42945;BME280;28584;42.636;23.294;2023-07-29T11:05:15;166966.53;;;31.41;29.91
42945;BME280;28584;42.636;23.294;2023-07-29T11:07:45;167000.41;;;31.53;29.57
42945;BME280;28584;42.636;23.294;2023-07-29T11:10:13;166779.56;;;30.71;29.86
42945;BME280;28584;42.636;23.294;2023-07-29T11:12:52;166679.31;;;30.34;30.69
42945;BME280;28584;42.636;23.294;2023-07-29T11:17:48;166977.38;;;31.45;30.42
42945;BME280;28584;42.636;23.294;2023-07-29T11:20:15;167191.50;;;32.24;28.52
42945;BME280;28584;42.636;23.294;2023-07-29T11:22:41;167481.72;;;33.31;27.27
42945;BME280;28584;42.636;23.294;2023-07-29T11:25:09;167666.28;;;33.99;26.74
42945;BME280;28584;42.636;23.294;2023-07-29T11:27:35;167812.84;;;34.53;26.68
42945;BME280;28584;42.636;23.294;2023-07-29T11:30:05;167602.44;;;33.75;26.64
42945;BME280;28584;42.636;23.294;2023-07-29T11:32:32;167567.22;;;33.62;27.17
42945;BME280;28584;42.636;23.294;2023-07-29T11:37:34;167871.19;;;34.75;25.70
42945;BME280;28584;42.636;23.294;2023-07-29T11:40:00;167713.75;;;34.17;26.55
42945;BME280;28584;42.636;23.294;2023-07-29T11:42:26;166989.56;;;31.49;29.20
42945;BME280;28584;42.636;23.294;2023-07-29T11:44:53;166761.94;;;30.65;29.50
42945;BME280;28584;42.636;23.294;2023-07-29T11:47:21;166798.53;;;30.78;29.11
42945;BME280;28584;42.636;23.294;2023-07-29T11:49:46;167004.47;;;31.55;28.68
42945;BME280;28584;42.636;23.294;2023-07-29T11:52:12;167043.75;;;31.69;28.14
42945;BME280;28584;42.636;23.294;2023-07-29T11:54:38;167302.72;;;32.65;27.42
42945;BME280;28584;42.636;23.294;2023-07-29T11:57:08;167669.00;;;34.00;26.41
42945;BME280;28584;42.636;23.294;2023-07-29T11:59:35;167785.69;;;34.43;25.62
42945;BME280;28584;42.636;23.294;2023-07-29T12:02:02;167533.28;;;33.50;26.00
42945;BME280;28584;42.636;23.294;2023-07-29T12:04:31;167606.53;;;33.77;26.30
42945;BME280;28584;42.636;23.294;2023-07-29T12:06:57;167561.78;;;33.60;26.33
42945;BME280;28584;42.636;23.294;2023-07-29T12:09:23;166722.66;;;30.50;29.50
42945;BME280;28584;42.636;23.294;2023-07-29T12:11:49;166673.94;;;30.32;30.27
42945;BME280;28584;42.636;23.294;2023-07-29T12:14:16;166740.25;;;30.57;29.89
42945;BME280;28584;42.636;23.294;2023-07-29T12:16:47;166377.44;;;29.23;31.29
42945;BME280;28584;42.636;23.294;2023-07-29T12:19:14;166426.13;;;29.41;30.92
42945;BME280;28584;42.636;23.294;2023-07-29T12:21:42;166390.94;;;29.28;31.82
42945;BME280;28584;42.636;23.294;2023-07-29T12:24:08;166401.75;;;29.32;31.40
42945;BME280;28584;42.636;23.294;2023-07-29T12:26:35;166523.59;;;29.77;31.11
42945;BME280;28584;42.636;23.294;2023-07-29T12:29:11;166263.75;;;28.80;30.98
42945;BME280;28584;42.636;23.294;2023-07-29T12:31:37;166319.19;;;29.01;32.17
42945;BME280;28584;42.636;23.294;2023-07-29T12:34:03;166286.75;;;28.89;31.81
42945;BME280;28584;42.636;23.294;2023-07-29T12:36:48;166395.00;;;29.29;30.83
42945;BME280;28584;42.636;23.294;2023-07-29T12:39:27;166243.47;;;28.73;31.14
42945;BME280;28584;42.636;23.294;2023-07-29T12:41:54;166400.44;;;29.31;31.01
42945;BME280;28584;42.636;23.294;2023-07-29T12:44:22;166419.38;;;29.38;31.38
42945;BME280;28584;42.636;23.294;2023-07-29T12:46:48;166470.78;;;29.57;31.08
42945;BME280;28584;42.636;23.294;2023-07-29T12:49:13;166565.56;;;29.92;30.83
42945;BME280;28584;42.636;23.294;2023-07-29T12:51:39;166497.91;;;29.67;30.76
42945;BME280;28584;42.636;23.294;2023-07-29T12:54:04;166572.38;;;29.95;30.24
42945;BME280;28584;42.636;23.294;2023-07-29T12:56:31;166553.38;;;29.88;30.69
42945;BME280;28584;42.636;23.294;2023-07-29T12:58:57;166489.78;;;29.64;30.72